createdAt,value
2023-03-06T00:02:19.115Z,1.77
2023-03-06T00:04:45.500Z,1.70
2023-03-06T00:07:11.859Z,2.01
2023-03-06T00:09:38.181Z,1.93
2023-03-06T00:12:04.551Z,1.69
2023-03-06T00:14:30.874Z,1.74
2023-03-06T00:16:57.314Z,1.72
2023-03-06T00:19:23.938Z,1.76
2023-03-06T00:21:50.505Z,1.72
2023-03-06T00:24:16.840Z,1.70
2023-03-06T00:26:43.210Z,1.68
2023-03-06T00:29:09.497Z,1.78
2023-03-06T00:31:35.959Z,1.67
2023-03-06T00:34:02.937Z,1.52
2023-03-06T00:36:29.248Z,1.85
2023-03-06T00:38:55.778Z,1.62
2023-03-06T00:41:22.084Z,1.33
2023-03-06T00:43:48.384Z,1.56
2023-03-06T00:46:14.660Z,1.54
2023-03-06T00:48:40.987Z,1.70
2023-03-06T00:51:07.393Z,1.57
2023-03-06T00:53:33.748Z,1.51
2023-03-06T00:56:00.118Z,1.63
2023-03-06T00:58:26.433Z,1.43
2023-03-06T01:00:52.907Z,1.41
2023-03-06T01:03:19.223Z,1.41
2023-03-06T01:05:45.596Z,1.46
2023-03-06T01:08:11.933Z,1.33
2023-03-06T01:10:39.172Z,1.30
2023-03-06T01:13:05.883Z,1.39
2023-03-06T01:15:32.161Z,1.27
2023-03-06T01:17:58.524Z,1.31
2023-03-06T01:20:24.900Z,1.32
2023-03-06T01:22:51.363Z,1.32
2023-03-06T01:25:17.742Z,1.15
2023-03-06T01:27:44.065Z,1.40
2023-03-06T01:30:10.936Z,1.65
2023-03-06T01:32:37.343Z,1.49
2023-03-06T01:35:03.878Z,1.37
2023-03-06T01:37:30.260Z,1.29
2023-03-06T01:39:56.548Z,1.55
2023-03-06T01:42:22.881Z,1.39
2023-03-06T01:45:03.527Z,1.37
2023-03-06T01:47:29.960Z,1.36
2023-03-06T01:49:57.851Z,1.37
2023-03-06T01:52:26.148Z,1.14
2023-03-06T01:54:55.273Z,1.38
2023-03-06T01:57:30.378Z,1.39
2023-03-06T02:00:02.515Z,1.39
2023-03-06T02:02:29.368Z,1.47
2023-03-06T02:04:56.022Z,1.47
2023-03-06T02:07:22.688Z,1.66
2023-03-06T02:09:48.970Z,1.47
2023-03-06T02:12:17.272Z,1.56
2023-03-06T02:14:43.603Z,1.54
2023-03-06T02:17:10.709Z,1.68
2023-03-06T02:19:42.768Z,1.53
2023-03-06T02:22:09.739Z,1.62
2023-03-06T02:24:42.451Z,1.51
2023-03-06T02:27:09.997Z,1.71
2023-03-06T02:29:36.312Z,1.62
2023-03-06T02:32:02.649Z,1.36
2023-03-06T02:34:29.097Z,1.53
2023-03-06T02:37:05.035Z,1.53
2023-03-06T02:39:33.623Z,1.74
2023-03-06T02:41:59.911Z,1.61
2023-03-06T02:44:27.710Z,1.59
2023-03-06T02:46:54.020Z,1.68
2023-03-06T02:49:20.351Z,1.55
2023-03-06T02:51:46.682Z,1.65
2023-03-06T02:54:13.019Z,1.64
2023-03-06T02:56:39.295Z,1.55
2023-03-06T02:59:05.609Z,1.51
2023-03-06T03:01:32.075Z,1.44
2023-03-06T03:03:58.372Z,1.51
2023-03-06T03:06:24.667Z,1.65
2023-03-06T03:08:51.015Z,1.45
2023-03-06T03:11:17.331Z,1.51
2023-03-06T03:13:43.930Z,1.56
2023-03-06T03:16:13.913Z,1.40
2023-03-06T03:18:40.211Z,1.20
2023-03-06T03:21:10.452Z,1.36
2023-03-06T03:23:36.789Z,1.23
2023-03-06T03:26:10.210Z,1.39
2023-03-06T03:28:36.612Z,1.45
2023-03-06T03:31:03.955Z,1.26
2023-03-06T03:33:30.314Z,1.21
2023-03-06T03:35:57.990Z,1.31
2023-03-06T03:38:24.336Z,1.27
2023-03-06T03:40:50.627Z,1.28
2023-03-06T03:43:17.085Z,1.11
2023-03-06T03:45:43.555Z,1.10
2023-03-06T03:48:09.850Z,1.28
2023-03-06T03:50:36.174Z,1.18
2023-03-06T03:53:02.507Z,1.00
2023-03-06T03:55:29.229Z,1.03
2023-03-06T03:57:55.536Z,1.16
2023-03-06T04:00:21.844Z,1.31
2023-03-06T04:02:48.143Z,1.21
2023-03-06T04:05:15.091Z,1.16
2023-03-06T04:07:42.232Z,1.12
2023-03-06T04:10:10.039Z,1.22
2023-03-06T04:12:36.653Z,1.20
2023-03-06T04:15:03.588Z,1.00
2023-03-06T04:17:29.902Z,1.11
2023-03-06T04:19:56.224Z,1.17
2023-03-06T04:22:22.516Z,1.11
2023-03-06T04:24:49.800Z,1.14
2023-03-06T04:27:16.120Z,1.23
2023-03-06T04:29:42.413Z,0.90
2023-03-06T04:32:08.826Z,1.11
2023-03-06T04:34:35.159Z,1.19
2023-03-06T04:37:02.573Z,1.00
2023-03-06T04:39:28.899Z,0.90
2023-03-06T04:41:55.210Z,1.15
2023-03-06T04:44:21.588Z,1.08
2023-03-06T04:46:47.918Z,0.87
2023-03-06T04:49:14.265Z,0.68
2023-03-06T04:51:40.586Z,0.76
2023-03-06T04:54:06.871Z,0.87
2023-03-06T04:56:34.480Z,0.91
2023-03-06T04:59:01.981Z,0.91
2023-03-06T05:01:28.259Z,0.87
2023-03-06T05:03:54.549Z,0.92
2023-03-06T05:06:20.866Z,1.06
2023-03-06T05:08:47.318Z,1.08
2023-03-06T05:11:13.660Z,0.86
2023-03-06T05:13:39.918Z,0.92
2023-03-06T05:16:06.728Z,0.83
2023-03-06T05:18:33.690Z,0.92
2023-03-06T05:21:00.497Z,1.05
2023-03-06T05:23:27.967Z,0.88
2023-03-06T05:25:54.322Z,0.87
2023-03-06T05:28:20.984Z,1.08
2023-03-06T05:30:47.650Z,1.03
2023-03-06T05:33:13.987Z,0.81
2023-03-06T05:35:44.315Z,0.84
2023-03-06T05:38:10.627Z,1.06
2023-03-06T05:40:39.269Z,0.92
2023-03-06T05:43:06.686Z,0.94
2023-03-06T05:45:33.110Z,0.90
2023-03-06T05:47:59.464Z,0.94
2023-03-06T05:50:25.742Z,0.93
2023-03-06T05:52:52.074Z,1.02
2023-03-06T05:55:21.023Z,1.00
2023-03-06T05:57:47.973Z,0.80
2023-03-06T06:00:15.039Z,0.89
2023-03-06T06:02:42.814Z,1.04
2023-03-06T06:05:11.324Z,1.06
2023-03-06T06:07:39.422Z,0.92
2023-03-06T06:10:06.228Z,0.89
2023-03-06T06:12:32.669Z,0.98
2023-03-06T06:14:59.064Z,0.95
2023-03-06T06:17:25.435Z,0.88
2023-03-06T06:19:51.756Z,0.97
2023-03-06T06:22:18.106Z,0.77
2023-03-06T06:24:44.400Z,0.85
2023-03-06T06:27:10.711Z,1.05
2023-03-06T06:29:37.092Z,1.02
2023-03-06T06:32:03.677Z,1.13
2023-03-06T06:34:31.766Z,1.14
2023-03-06T06:36:58.108Z,1.11
2023-03-06T06:39:24.797Z,1.15
2023-03-06T06:42:06.361Z,1.10
2023-03-06T06:44:39.260Z,1.29
2023-03-06T06:47:23.633Z,1.33
2023-03-06T06:49:52.651Z,1.37
2023-03-06T06:52:19.042Z,1.29
2023-03-06T06:54:45.456Z,1.29
2023-03-06T06:57:12.246Z,1.35
2023-03-06T06:59:38.601Z,1.30
2023-03-06T07:02:05.733Z,1.48
2023-03-06T07:04:32.036Z,1.41
2023-03-06T07:06:58.710Z,1.29
2023-03-06T07:09:25.324Z,1.47
2023-03-06T07:11:51.683Z,1.39
2023-03-06T07:14:18.139Z,1.62
2023-03-06T07:16:44.443Z,1.49
2023-03-06T07:19:10.820Z,1.66
2023-03-06T07:21:37.096Z,1.53
2023-03-06T07:24:03.446Z,1.38
2023-03-06T07:26:32.732Z,1.49
2023-03-06T07:29:00.463Z,1.35
2023-03-06T07:31:27.260Z,1.33
2023-03-06T07:33:54.244Z,1.35
2023-03-06T07:36:21.255Z,1.51
2023-03-06T07:38:47.673Z,1.65
2023-03-06T07:41:16.276Z,1.58
2023-03-06T07:43:43.762Z,1.81
2023-03-06T07:46:10.482Z,1.34
2023-03-06T07:48:37.622Z,1.45
2023-03-06T07:51:24.324Z,1.72
2023-03-06T07:53:50.695Z,1.73
2023-03-06T07:56:17.424Z,1.61
2023-03-06T07:58:44.604Z,1.77
2023-03-06T08:01:12.956Z,1.87
2023-03-06T08:03:39.538Z,1.60
2023-03-06T08:06:10.621Z,2.06
2023-03-06T08:08:39.172Z,2.04
2023-03-06T08:11:06.083Z,2.00
2023-03-06T08:13:32.439Z,2.04
2023-03-06T08:15:59.969Z,2.18
2023-03-06T08:18:27.453Z,2.00
2023-03-06T08:21:02.838Z,2.20
2023-03-06T08:23:29.188Z,2.39
2023-03-06T08:25:59.783Z,2.20
2023-03-06T08:28:26.430Z,2.37
2023-03-06T08:30:52.775Z,2.27
2023-03-06T08:33:19.079Z,2.29
2023-03-06T08:35:45.451Z,2.28
2023-03-06T08:38:11.835Z,2.37
2023-03-06T08:40:38.182Z,2.31
2023-03-06T08:43:04.551Z,2.48
2023-03-06T08:45:30.888Z,2.39
2023-03-06T08:47:57.276Z,2.55
2023-03-06T08:50:23.613Z,2.70
2023-03-06T08:52:49.990Z,2.74
2023-03-06T08:55:16.290Z,2.73
2023-03-06T08:57:42.608Z,2.79
2023-03-06T09:00:10.780Z,2.75
2023-03-06T09:02:37.205Z,2.57
2023-03-06T09:05:08.042Z,2.62
2023-03-06T09:07:35.105Z,2.82
2023-03-06T09:10:02.004Z,2.74
2023-03-06T09:12:30.715Z,2.62
2023-03-06T09:14:57.248Z,2.63
2023-03-06T09:17:23.603Z,2.63
2023-03-06T09:19:50.886Z,2.87
2023-03-06T09:22:17.166Z,2.59
2023-03-06T09:24:43.461Z,2.56
2023-03-06T09:27:09.827Z,2.87
2023-03-06T09:29:36.108Z,2.63
2023-03-06T09:32:02.492Z,2.76
2023-03-06T09:34:28.873Z,2.87
2023-03-06T09:36:57.140Z,2.58
2023-03-06T09:39:24.077Z,2.55
2023-03-06T09:41:51.030Z,2.33
2023-03-06T09:44:22.043Z,2.63
2023-03-06T09:47:07.102Z,2.86
2023-03-06T09:50:12.143Z,3.06
2023-03-06T09:52:47.645Z,3.00
2023-03-06T09:55:18.874Z,2.82
2023-03-06T09:57:53.407Z,2.58
2023-03-06T10:00:23.140Z,2.93
2023-03-06T10:02:53.272Z,2.63
2023-03-06T10:05:21.384Z,2.76
2023-03-06T10:08:12.134Z,2.87
2023-03-06T10:10:48.754Z,2.73
2023-03-06T10:13:20.895Z,2.93
2023-03-06T10:15:48.007Z,3.07
2023-03-06T10:18:14.384Z,3.31
2023-03-06T10:20:59.457Z,3.23
2023-03-06T10:23:31.180Z,3.03
2023-03-06T10:26:02.442Z,3.22
2023-03-06T10:28:35.113Z,3.08
2023-03-06T10:31:37.113Z,3.03
2023-03-06T10:34:16.204Z,3.19
2023-03-06T10:36:42.580Z,3.07
2023-03-06T10:39:29.190Z,2.93
2023-03-06T10:41:55.617Z,3.27
2023-03-06T10:44:23.416Z,3.13
2023-03-06T10:46:51.507Z,2.99
2023-03-06T10:49:24.035Z,2.86
2023-03-06T10:51:57.837Z,2.76
2023-03-06T10:54:24.251Z,3.02
2023-03-06T10:56:50.632Z,2.77
2023-03-06T10:59:28.388Z,2.66
2023-03-06T11:01:56.632Z,2.88
2023-03-06T11:04:25.873Z,2.85
2023-03-06T11:07:07.533Z,2.93
2023-03-06T11:09:33.989Z,2.96
2023-03-06T11:12:20.332Z,2.98
2023-03-06T11:14:46.776Z,2.76
2023-03-06T11:17:29.546Z,2.80
2023-03-06T11:20:14.384Z,2.83
2023-03-06T11:22:41.383Z,2.84
2023-03-06T11:25:13.163Z,2.92
2023-03-06T11:27:42.626Z,2.60
2023-03-06T11:30:11.834Z,2.76
2023-03-06T11:32:44.066Z,2.30
2023-03-06T11:35:13.673Z,2.34
2023-03-06T11:37:43.072Z,2.74
2023-03-06T11:40:41.966Z,2.76
2023-03-06T11:43:20.595Z,2.84
2023-03-06T11:46:03.405Z,2.66
2023-03-06T11:48:41.382Z,2.80
2023-03-06T11:51:19.758Z,2.30
2023-03-06T11:53:49.343Z,2.29
2023-03-06T11:56:18.822Z,2.52
2023-03-06T11:59:03.845Z,2.52
2023-03-06T12:01:36.314Z,2.55
2023-03-06T12:04:21.426Z,2.52
2023-03-06T12:06:53.901Z,2.53
2023-03-06T12:09:20.184Z,2.59
2023-03-06T12:11:58.957Z,2.69
2023-03-06T12:14:40.773Z,2.43
2023-03-06T12:17:31.855Z,2.72
2023-03-06T12:20:01.324Z,2.39
2023-03-06T12:22:33.610Z,2.66
2023-03-06T12:25:26.866Z,2.67
2023-03-06T12:28:01.893Z,2.70
2023-03-06T12:30:28.166Z,2.81
2023-03-06T12:33:12.634Z,2.74
2023-03-06T12:35:45.341Z,2.53
2023-03-06T12:38:33.846Z,2.72
2023-03-06T12:41:00.131Z,2.88
2023-03-06T12:43:39.965Z,2.92
2023-03-06T12:46:12.655Z,2.73
2023-03-06T12:48:40.649Z,2.96
2023-03-06T12:51:07.883Z,3.09
2023-03-06T12:53:35.284Z,3.08
2023-03-06T12:56:03.125Z,3.10
2023-03-06T12:58:29.775Z,3.13
2023-03-06T13:01:03.558Z,3.37
2023-03-06T13:03:39.214Z,3.28
2023-03-06T13:06:05.657Z,3.17
2023-03-06T13:08:52.665Z,3.06
2023-03-06T13:11:22.137Z,3.45
2023-03-06T13:13:48.831Z,3.39
2023-03-06T13:16:18.232Z,3.61
2023-03-06T13:18:44.616Z,3.49
2023-03-06T13:21:29.771Z,3.54
2023-03-06T13:24:03.644Z,3.46
2023-03-06T13:26:30.004Z,3.48
2023-03-06T13:28:57.978Z,3.37
2023-03-06T13:31:28.200Z,3.46
2023-03-06T13:33:56.577Z,3.50
2023-03-06T13:36:31.776Z,3.40
2023-03-06T13:38:58.076Z,3.36
2023-03-06T13:41:27.499Z,3.51
2023-03-06T13:43:55.949Z,3.37
2023-03-06T13:46:25.927Z,3.46
2023-03-06T13:49:07.575Z,3.55
2023-03-06T13:51:37.838Z,3.60
2023-03-06T13:54:23.171Z,3.54
2023-03-06T13:56:56.750Z,3.76
2023-03-06T13:59:28.881Z,3.69
2023-03-06T14:02:10.733Z,3.68
2023-03-06T14:04:46.508Z,3.63
2023-03-06T14:07:23.061Z,3.62
2023-03-06T14:09:59.852Z,3.41
2023-03-06T14:12:30.882Z,3.40
2023-03-06T14:14:58.715Z,3.30
2023-03-06T14:17:36.718Z,3.24
2023-03-06T14:20:23.299Z,3.21
2023-03-06T14:22:49.674Z,2.87
2023-03-06T14:25:20.463Z,3.32
2023-03-06T14:27:48.342Z,3.21
2023-03-06T14:30:20.875Z,3.25
2023-03-06T14:32:48.299Z,3.32
2023-03-06T14:35:28.857Z,3.19
2023-03-06T14:38:00.601Z,3.27
2023-03-06T14:40:43.647Z,3.09
2023-03-06T14:43:11.172Z,3.33
2023-03-06T14:45:37.693Z,3.44
2023-03-06T14:48:05.903Z,3.43
2023-03-06T14:50:35.596Z,3.37
2023-03-06T14:53:16.637Z,3.46
2023-03-06T14:55:57.806Z,3.43
2023-03-06T14:58:35.889Z,3.63
2023-03-06T15:01:04.861Z,3.68
2023-03-06T15:03:57.433Z,3.35
2023-03-06T15:06:34.690Z,3.43
2023-03-06T15:09:24.379Z,3.41
2023-03-06T15:12:08.651Z,3.53
2023-03-06T15:14:36.572Z,3.49
2023-03-06T15:17:20.549Z,3.33
2023-03-06T15:19:48.536Z,3.17
2023-03-06T15:22:20.822Z,3.29
2023-03-06T15:24:47.170Z,3.13
2023-03-06T15:27:18.180Z,3.33
2023-03-06T15:29:44.601Z,3.05
2023-03-06T15:32:15.499Z,3.06
2023-03-06T15:34:41.899Z,3.10
2023-03-06T15:37:26.667Z,3.16
2023-03-06T15:40:06.289Z,2.99
2023-03-06T15:42:34.269Z,2.95
2023-03-06T15:45:03.238Z,2.88
2023-03-06T15:47:29.666Z,3.20
2023-03-06T15:49:56.819Z,3.00
2023-03-06T15:52:23.505Z,2.81
2023-03-06T15:54:49.844Z,2.97
2023-03-06T15:57:23.806Z,2.75
2023-03-06T15:59:50.572Z,2.94
2023-03-06T16:02:18.046Z,3.10
2023-03-06T16:04:44.856Z,3.11
2023-03-06T16:07:11.561Z,2.96
2023-03-06T16:09:37.960Z,2.92
2023-03-06T16:12:04.651Z,2.92
2023-03-06T16:14:31.080Z,2.91
2023-03-06T16:16:57.859Z,2.86
2023-03-06T16:19:27.156Z,2.60
2023-03-06T16:21:54.653Z,2.56
2023-03-06T16:24:21.310Z,2.80
2023-03-06T16:26:50.795Z,2.87
2023-03-06T16:29:18.338Z,2.88
2023-03-06T16:31:44.882Z,2.79
2023-03-06T16:34:11.579Z,2.74
2023-03-06T16:36:38.437Z,2.77
2023-03-06T16:39:04.846Z,2.27
2023-03-06T16:41:31.340Z,2.41
2023-03-06T16:43:57.748Z,2.49
2023-03-06T16:46:24.496Z,2.53
2023-03-06T16:48:52.134Z,2.51
2023-03-06T16:51:19.824Z,2.52
2023-03-06T16:53:46.259Z,2.41
2023-03-06T16:56:14.107Z,2.43
2023-03-06T16:58:40.979Z,2.31
2023-03-06T17:01:07.500Z,2.27
2023-03-06T17:03:34.464Z,2.19
2023-03-06T17:06:01.175Z,2.03
2023-03-06T17:08:27.629Z,1.86
2023-03-06T17:10:54.212Z,1.83
2023-03-06T17:13:20.757Z,1.72
2023-03-06T17:15:58.869Z,1.57
2023-03-06T17:18:26.116Z,1.53
2023-03-06T17:20:53.560Z,1.56
2023-03-06T17:23:20.820Z,1.48
2023-03-06T17:25:47.497Z,1.38
2023-03-06T17:28:14.287Z,1.17
2023-03-06T17:30:40.624Z,1.03
2023-03-06T17:33:07.042Z,1.00
2023-03-06T17:35:36.666Z,0.97
2023-03-06T17:38:03.437Z,0.90
2023-03-06T17:40:29.942Z,0.86
2023-03-06T17:42:56.329Z,0.79
2023-03-06T17:45:22.738Z,0.76
2023-03-06T17:47:52.580Z,0.74
2023-03-06T17:50:18.941Z,0.68
2023-03-06T17:52:45.784Z,0.60
2023-03-06T17:55:12.241Z,0.68
2023-03-06T17:57:38.556Z,0.50
2023-03-06T18:00:05.831Z,0.51
2023-03-06T18:02:32.204Z,0.40
2023-03-06T18:04:58.667Z,0.42
2023-03-06T18:07:25.029Z,0.46
2023-03-06T18:09:51.559Z,0.43
2023-03-06T18:12:18.380Z,0.32
2023-03-06T18:14:45.286Z,0.36
2023-03-06T18:17:11.655Z,0.26
2023-03-06T18:19:38.083Z,0.23
2023-03-06T18:22:04.391Z,0.31
2023-03-06T18:24:30.862Z,0.24
2023-03-06T18:26:57.313Z,0.22
2023-03-06T18:29:23.621Z,0.21
2023-03-06T18:31:50.375Z,0.19
2023-03-06T18:34:17.792Z,0.25
2023-03-06T18:36:47.008Z,0.23
2023-03-06T18:39:14.102Z,0.11
2023-03-06T18:41:41.224Z,0.13
2023-03-06T18:44:07.516Z,0.18
2023-03-06T18:46:35.287Z,0.22
2023-03-06T18:49:01.675Z,0.07
2023-03-06T18:51:28.356Z,0.14
2023-03-06T18:53:58.718Z,0.01
2023-03-06T18:56:25.107Z,0.08
2023-03-06T18:58:51.617Z,0.20
2023-03-06T19:01:18.386Z,0.07
2023-03-06T19:03:45.003Z,0.02
2023-03-06T19:06:12.601Z,-0.05
2023-03-06T19:08:39.161Z,-0.22
2023-03-06T19:11:12.973Z,-0.02
2023-03-06T19:13:39.322Z,0.07
2023-03-06T19:16:06.035Z,0.23
2023-03-06T19:18:32.394Z,0.31
2023-03-06T19:21:11.883Z,0.36
2023-03-06T19:23:39.362Z,0.16
2023-03-06T19:26:07.376Z,0.28
2023-03-06T19:28:34.323Z,0.22
2023-03-06T19:31:06.909Z,0.33
2023-03-06T19:33:35.927Z,0.36
2023-03-06T19:36:02.561Z,0.34
2023-03-06T19:38:28.872Z,0.44
2023-03-06T19:40:55.319Z,0.41
2023-03-06T19:43:22.831Z,0.53
2023-03-06T19:45:49.196Z,0.59
2023-03-06T19:48:16.166Z,0.45
2023-03-06T19:50:42.491Z,0.62
2023-03-06T19:53:10.944Z,0.60
2023-03-06T19:55:37.845Z,0.60
2023-03-06T19:58:04.519Z,0.56
2023-03-06T20:00:30.874Z,0.51
2023-03-06T20:02:57.621Z,0.38
2023-03-06T20:05:23.951Z,0.42
2023-03-06T20:07:50.722Z,0.68
2023-03-06T20:10:17.241Z,0.49
2023-03-06T20:12:43.773Z,0.48
2023-03-06T20:15:10.372Z,0.38
2023-03-06T20:17:36.838Z,0.75
2023-03-06T20:20:03.525Z,0.61
2023-03-06T20:22:29.852Z,0.43
2023-03-06T20:24:56.254Z,0.58
2023-03-06T20:27:22.553Z,0.52
2023-03-06T20:29:48.866Z,0.60
2023-03-06T20:32:15.192Z,0.49
2023-03-06T20:34:41.721Z,0.30
2023-03-06T20:37:08.809Z,0.36
2023-03-06T20:39:35.625Z,0.44
2023-03-06T20:42:02.624Z,0.28
2023-03-06T20:44:29.052Z,0.33
2023-03-06T20:46:55.430Z,0.33
2023-03-06T20:49:22.161Z,0.24
2023-03-06T20:51:49.920Z,0.27
2023-03-06T20:54:16.714Z,0.32
2023-03-06T20:56:45.979Z,0.39
2023-03-06T20:59:14.058Z,0.18
2023-03-06T21:01:41.929Z,0.25
2023-03-06T21:04:09.805Z,0.20
2023-03-06T21:06:37.150Z,0.34
2023-03-06T21:09:04.882Z,0.07
2023-03-06T21:11:31.183Z,0.34
2023-03-06T21:13:57.771Z,0.04
2023-03-06T21:16:25.248Z,0.07
2023-03-06T21:18:51.920Z,0.02
2023-03-06T21:21:20.837Z,0.05
2023-03-06T21:23:48.109Z,0.07
2023-03-06T21:26:15.568Z,-0.10
2023-03-06T21:28:41.945Z,0.06
2023-03-06T21:31:09.510Z,0.12
2023-03-06T21:33:35.977Z,0.28
2023-03-06T21:36:02.621Z,0.10
2023-03-06T21:38:29.080Z,0.22
2023-03-06T21:40:55.952Z,0.04
2023-03-06T21:43:22.423Z,-0.05
2023-03-06T21:45:52.530Z,0.19
2023-03-06T21:48:19.155Z,0.08
2023-03-06T21:50:45.450Z,0.11
2023-03-06T21:53:11.806Z,0.11
2023-03-06T21:55:38.820Z,0.03
2023-03-06T21:58:05.096Z,0.08
2023-03-06T22:00:35.983Z,0.12
2023-03-06T22:03:06.548Z,0.04
2023-03-06T22:05:32.873Z,-0.19
2023-03-06T22:07:59.390Z,-0.18
2023-03-06T22:10:25.709Z,-0.11
2023-03-06T22:12:52.009Z,-0.14
2023-03-06T22:15:20.362Z,-0.05
2023-03-06T22:17:48.400Z,-0.08
2023-03-06T22:20:15.309Z,0.06
2023-03-06T22:22:41.687Z,-0.00
2023-03-06T22:25:08.823Z,-0.02
2023-03-06T22:27:35.102Z,-0.02
2023-03-06T22:30:01.439Z,-0.23
2023-03-06T22:32:27.782Z,-0.17
2023-03-06T22:34:54.082Z,-0.14
2023-03-06T22:37:20.472Z,-0.11
2023-03-06T22:39:47.703Z,0.04
2023-03-06T22:42:13.996Z,-0.00
2023-03-06T22:44:40.306Z,-0.02
2023-03-06T22:47:06.621Z,-0.13
2023-03-06T22:49:32.923Z,0.01
2023-03-06T22:51:59.246Z,-0.30
2023-03-06T22:54:25.570Z,-0.18
2023-03-06T22:56:51.859Z,-0.08
2023-03-06T22:59:18.288Z,-0.26
2023-03-06T23:01:44.666Z,-0.17
2023-03-06T23:04:11.328Z,-0.23
2023-03-06T23:06:39.781Z,-0.33
2023-03-06T23:09:07.885Z,-0.33
2023-03-06T23:11:34.506Z,-0.29
2023-03-06T23:14:00.947Z,-0.35
2023-03-06T23:16:27.265Z,-0.23
2023-03-06T23:18:53.915Z,-0.45
2023-03-06T23:21:21.256Z,-0.23
2023-03-06T23:23:48.977Z,-0.38
2023-03-06T23:26:15.428Z,-0.43
2023-03-06T23:28:42.059Z,-0.46
2023-03-06T23:31:09.476Z,-0.51
2023-03-06T23:33:36.821Z,-0.44
2023-03-06T23:36:04.163Z,-0.49
2023-03-06T23:38:30.505Z,-0.43
2023-03-06T23:40:56.825Z,-0.37
2023-03-06T23:43:23.139Z,-0.31
2023-03-06T23:45:53.541Z,-0.33
2023-03-06T23:48:19.901Z,-0.33
2023-03-06T23:50:46.444Z,-0.33
2023-03-06T23:53:13.240Z,-0.59
2023-03-06T23:55:42.691Z,-0.38
2023-03-06T23:58:09.012Z,-0.51
